Time;durP1;ratioP1;P1;durP2;ratioP2;P2;SDS_P1;SDS_P2;PMS_P1;PMS_P2;Temp;Humidity;BMP_temperature;BMP_pressure;BME280_temperature;BME280_humidity;BME280_pressure;Samples;Min_cycle;Max_cycle;Signal;HPM_P1;HPM_P2
2022/01/11 00:01:00;;;;;;;36.20;33.05;;;3.30;96.80;;;;;;5093264;28;20223;-72
2022/01/11 00:03:27;;;;;;;39.67;35.60;;;3.40;95.20;;;;;;5093489;28;20230;-73
2022/01/11 00:05:58;;;;;;;37.60;34.03;;;3.40;94.60;;;;;;5093413;28;20199;-73
2022/01/11 00:08:31;;;;;;;35.88;32.58;;;3.40;94.20;;;;;;5093511;28;20202;-73
2022/01/11 00:11:04;;;;;;;40.03;35.97;;;3.40;93.70;;;;;;5093240;28;20310;-73
2022/01/11 00:13:33;;;;;;;38.50;35.00;;;3.30;93.80;;;;;;5093325;28;20392;-73
2022/01/11 00:16:00;;;;;;;36.88;33.47;;;3.30;93.30;;;;;;5093337;28;20195;-73
2022/01/11 00:18:27;;;;;;;39.38;35.28;;;3.40;93.30;;;;;;5093168;28;20555;-73
2022/01/11 00:20:55;;;;;;;37.05;33.53;;;3.40;92.90;;;;;;5093163;28;20345;-73
2022/01/11 00:26:06;;;;;;;38.30;34.58;;;3.60;92.10;;;;;;5071795;28;20545;-72
2022/01/11 00:28:34;;;;;;;38.30;34.55;;;3.50;92.20;;;;;;5092949;28;20191;-72
2022/01/11 00:31:03;;;;;;;38.03;34.33;;;3.30;92.80;;;;;;5092742;28;20314;-73
2022/01/11 00:33:35;;;;;;;38.53;34.92;;;3.30;93.20;;;;;;5093051;28;20223;-73
2022/01/11 00:36:03;;;;;;;35.85;32.25;;;3.30;93.20;;;;;;5093000;28;20210;-72
2022/01/11 00:38:32;;;;;;;251.20;60.08;;;3.30;93.40;;;;;;5093012;28;20672;-73
2022/01/11 00:41:01;;;;;;;36.70;33.35;;;3.40;99.00;;;;;;5092616;28;20226;-73
2022/01/11 00:43:29;;;;;;;36.55;32.90;;;3.40;97.00;;;;;;5092911;28;20195;-73
2022/01/11 00:45:59;;;;;;;35.65;32.35;;;3.40;96.50;;;;;;5092897;28;20289;-73
2022/01/11 00:48:26;;;;;;;35.92;32.67;;;3.40;95.60;;;;;;5092635;28;20282;-73
2022/01/11 00:50:54;;;;;;;37.58;33.97;;;3.40;95.30;;;;;;5092538;28;20222;-73
2022/01/11 00:53:22;;;;;;;37.08;32.85;;;3.40;94.90;;;;;;5092458;28;20215;-72
2022/01/11 00:55:50;;;;;;;37.85;34.20;;;3.50;95.70;;;;;;5092940;28;20232;-73
2022/01/11 00:58:18;;;;;;;37.08;33.38;;;3.40;94.10;;;;;;5092568;28;20579;-72
2022/01/11 01:00:46;;;;;;;36.38;32.60;;;3.30;93.90;;;;;;5092580;28;20217;-72
2022/01/11 01:03:14;;;;;;;35.13;31.60;;;3.30;94.10;;;;;;5092816;28;20202;-72
2022/01/11 01:05:42;;;;;;;38.08;34.28;;;3.30;94.80;;;;;;5092722;28;20197;-72
2022/01/11 01:08:09;;;;;;;37.28;33.70;;;3.30;93.80;;;;;;5092658;28;20191;-72
2022/01/11 01:10:39;;;;;;;36.28;32.75;;;3.30;94.00;;;;;;5092500;28;20700;-72
2022/01/11 01:13:10;;;;;;;34.58;31.40;;;3.30;94.10;;;;;;5092734;28;20695;-72
2022/01/11 01:15:37;;;;;;;38.20;34.65;;;3.40;94.10;;;;;;5092546;28;20282;-73
2022/01/11 01:18:05;;;;;;;37.30;33.75;;;3.50;93.30;;;;;;5092641;28;20202;-73
2022/01/11 01:20:34;;;;;;;38.30;34.30;;;3.30;93.40;;;;;;5092505;28;20219;-73
2022/01/11 01:23:01;;;;;;;37.42;33.55;;;3.30;94.00;;;;;;5092727;28;20198;-73
2022/01/11 01:25:28;;;;;;;37.55;33.88;;;3.40;93.50;;;;;;5092527;28;20202;-73
2022/01/11 01:27:56;;;;;;;38.45;34.75;;;3.40;93.30;;;;;;5092443;28;20195;-73
2022/01/11 01:30:23;;;;;;;37.63;34.22;;;3.50;93.70;;;;;;5092159;28;20309;-73
2022/01/11 01:32:50;;;;;;;37.47;33.72;;;3.60;92.90;;;;;;5092488;28;20657;-73
2022/01/11 01:35:19;;;;;;;38.65;34.90;;;3.60;92.50;;;;;;5092397;28;20199;-73
2022/01/11 01:37:48;;;;;;;35.15;32.25;;;3.70;92.00;;;;;;5092394;28;20249;-73
2022/01/11 01:40:17;;;;;;;37.17;33.83;;;3.60;92.30;;;;;;5092123;28;20241;-73
2022/01/11 01:42:44;;;;;;;36.10;32.70;;;3.50;92.60;;;;;;5095158;28;20199;-73
2022/01/11 01:45:12;;;;;;;37.42;34.15;;;3.50;92.60;;;;;;5096204;28;20264;-73
2022/01/11 01:47:39;;;;;;;37.28;33.47;;;3.40;92.90;;;;;;5096115;28;20580;-73
2022/01/11 01:50:08;;;;;;;141.30;43.17;;;3.50;93.00;;;;;;5095842;28;20210;-73
2022/01/11 01:52:36;;;;;;;37.67;34.28;;;3.50;93.10;;;;;;5095842;28;20245;-73
2022/01/11 01:55:05;;;;;;;36.72;32.83;;;3.50;94.70;;;;;;5095726;28;20277;-73
2022/01/11 01:57:34;;;;;;;35.92;32.38;;;3.60;95.00;;;;;;5095735;28;20209;-73
2022/01/11 02:00:07;;;;;;;39.40;35.72;;;3.60;94.30;;;;;;5095718;28;20225;-73
2022/01/11 02:02:35;;;;;;;41.38;37.33;;;3.60;94.00;;;;;;5095932;28;20204;-73
2022/01/11 02:05:03;;;;;;;307.77;65.10;;;3.70;93.60;;;;;;5095759;28;20194;-73
2022/01/11 02:07:30;;;;;;;38.85;34.95;;;3.70;93.90;;;;;;5095746;28;20260;-73
2022/01/11 02:09:56;;;;;;;40.35;36.30;;;3.60;95.50;;;;;;5095492;28;20215;-73
2022/01/11 02:12:25;;;;;;;37.08;33.30;;;3.60;94.80;;;;;;5095731;28;20195;-73
2022/01/11 02:14:52;;;;;;;36.55;32.75;;;3.70;94.40;;;;;;5095534;28;20221;-73
2022/01/11 02:17:19;;;;;;;36.45;33.10;;;3.60;93.80;;;;;;5095452;28;20195;-73
2022/01/11 02:19:46;;;;;;;36.60;33.17;;;3.70;93.90;;;;;;5095316;28;20307;-73
2022/01/11 02:22:14;;;;;;;35.70;32.50;;;3.70;93.60;;;;;;5095457;28;20195;-73
2022/01/11 02:24:41;;;;;;;38.95;35.05;;;3.70;93.60;;;;;;5095310;28;20191;-73
2022/01/11 02:27:08;;;;;;;36.97;33.78;;;3.70;94.50;;;;;;5095499;28;20195;-73
2022/01/11 02:29:35;;;;;;;34.60;31.52;;;3.70;94.50;;;;;;5095087;28;20215;-73
2022/01/11 02:32:02;;;;;;;34.42;30.98;;;3.70;93.80;;;;;;5095324;28;20199;-73
2022/01/11 02:34:29;;;;;;;36.00;32.80;;;3.70;93.50;;;;;;5095143;28;20597;-73
2022/01/11 02:36:56;;;;;;;36.10;32.50;;;3.70;93.50;;;;;;5095110;28;20196;-73
2022/01/11 02:39:24;;;;;;;36.53;33.10;;;3.60;93.00;;;;;;5094832;28;20215;-73
2022/01/11 02:41:53;;;;;;;35.55;32.33;;;3.50;93.20;;;;;;5095223;28;20526;-73
2022/01/11 02:44:21;;;;;;;35.45;31.58;;;3.60;93.10;;;;;;5095038;28;20195;-73
2022/01/11 02:46:48;;;;;;;37.00;33.15;;;3.60;92.50;;;;;;5094957;28;20199;-73
2022/01/11 02:49:15;;;;;;;37.15;33.45;;;3.50;92.60;;;;;;5094648;28;20215;-73
2022/01/11 02:51:42;;;;;;;36.20;32.58;;;3.60;92.50;;;;;;5094529;28;20203;-73
2022/01/11 02:54:09;;;;;;;37.45;33.13;;;3.60;92.60;;;;;;5094759;28;20571;-73
2022/01/11 02:56:37;;;;;;;35.25;32.15;;;3.50;92.50;;;;;;5094759;28;20195;-73
2022/01/11 02:59:04;;;;;;;35.80;32.35;;;3.50;92.70;;;;;;5094581;28;20698;-73
2022/01/11 03:01:31;;;;;;;36.17;32.55;;;3.50;92.80;;;;;;5094612;28;20197;-73
2022/01/11 03:03:58;;;;;;;36.45;32.65;;;3.50;92.70;;;;;;5094606;28;20191;-73
2022/01/11 03:06:25;;;;;;;37.35;33.42;;;3.50;92.60;;;;;;5094537;28;20253;-73
2022/01/11 03:08:52;;;;;;;37.03;33.63;;;3.40;93.00;;;;;;5094453;28;20711;-73
2022/01/11 03:11:21;;;;;;;37.28;33.83;;;3.30;93.70;;;;;;5094544;28;20298;-73
2022/01/11 03:13:50;;;;;;;36.70;32.92;;;3.50;93.30;;;;;;5094465;28;20211;-73
2022/01/11 03:16:18;;;;;;;37.83;34.22;;;3.60;92.60;;;;;;5094414;28;20664;-73
2022/01/11 03:18:45;;;;;;;36.58;33.15;;;3.50;92.60;;;;;;5094510;28;20196;-73
2022/01/11 03:21:12;;;;;;;38.67;35.13;;;3.40;93.00;;;;;;5094473;28;20207;-73
2022/01/11 03:23:41;;;;;;;38.53;34.53;;;3.50;93.20;;;;;;5094312;28;20206;-72
2022/01/11 03:26:07;;;;;;;36.80;33.40;;;3.50;93.20;;;;;;5094272;28;20202;-73
2022/01/11 03:28:35;;;;;;;37.85;33.85;;;3.40;93.10;;;;;;5094274;28;20203;-73
2022/01/11 03:31:03;;;;;;;38.08;34.05;;;3.40;93.10;;;;;;5093823;28;20285;-73
2022/01/11 03:33:30;;;;;;;39.08;35.28;;;3.30;93.20;;;;;;5094063;28;20214;-72
2022/01/11 03:35:57;;;;;;;38.00;34.22;;;3.30;93.80;;;;;;5094232;28;20202;-73
2022/01/11 03:38:24;;;;;;;39.90;36.10;;;3.50;93.20;;;;;;5094002;28;20195;-73
2022/01/11 03:40:52;;;;;;;39.38;35.50;;;3.50;92.80;;;;;;5093734;28;20303;-73
2022/01/11 03:43:21;;;;;;;39.28;35.28;;;3.50;92.80;;;;;;5093758;28;20203;-73
2022/01/11 03:45:49;;;;;;;37.80;34.30;;;3.40;93.10;;;;;;5093852;28;20253;-73
2022/01/11 03:48:18;;;;;;;38.65;34.85;;;3.40;93.30;;;;;;5093822;28;20675;-73
2022/01/11 03:50:50;;;;;;;39.00;35.10;;;3.40;93.60;;;;;;5093598;28;20221;-73
2022/01/11 03:53:18;;;;;;;38.28;34.50;;;3.30;94.00;;;;;;5093614;28;20195;-73
2022/01/11 03:55:58;;;;;;;39.00;35.30;;;3.30;94.20;;;;;;5093484;28;20522;-73
2022/01/11 03:58:28;;;;;;;37.63;34.10;;;3.40;93.90;;;;;;5093514;28;20234;-73
2022/01/11 04:00:56;;;;;;;38.38;34.58;;;3.40;93.80;;;;;;5093339;28;20326;-73
2022/01/11 04:03:25;;;;;;;37.35;33.78;;;3.30;93.80;;;;;;5093205;28;20542;-73
2022/01/11 04:05:52;;;;;;;37.30;33.85;;;3.40;93.70;;;;;;5093083;28;20572;-73
2022/01/11 04:08:19;;;;;;;37.55;34.15;;;3.40;93.00;;;;;;5093410;28;20205;-73
2022/01/11 04:10:46;;;;;;;39.67;35.90;;;3.40;92.90;;;;;;5093197;28;20211;-73
2022/01/11 04:13:13;;;;;;;39.42;35.53;;;3.40;93.00;;;;;;5093429;28;20203;-73
2022/01/11 04:15:39;;;;;;;39.80;35.72;;;3.40;93.20;;;;;;5093231;28;20576;-73
2022/01/11 04:18:06;;;;;;;40.03;36.20;;;3.40;93.20;;;;;;5093292;28;20200;-73
2022/01/11 04:20:35;;;;;;;42.35;38.40;;;3.40;93.20;;;;;;5092966;28;20219;-73
2022/01/11 04:23:02;;;;;;;39.22;35.22;;;3.40;93.20;;;;;;5093451;28;20191;-73
2022/01/11 04:25:29;;;;;;;38.80;35.20;;;3.30;93.40;;;;;;5093166;28;20191;-73
2022/01/11 04:27:55;;;;;;;41.63;37.63;;;3.30;93.70;;;;;;5093182;28;20199;-73
2022/01/11 04:30:22;;;;;;;41.95;36.97;;;3.30;93.80;;;;;;5092864;28;20223;-73
2022/01/11 04:32:49;;;;;;;45.08;36.08;;;3.40;94.00;;;;;;5093136;28;20571;-73
2022/01/11 04:35:17;;;;;;;182.82;51.50;;;3.40;95.50;;;;;;5092753;28;20219;-73
2022/01/11 04:37:46;;;;;;;39.80;35.80;;;3.40;94.90;;;;;;5092870;28;20199;-73
2022/01/11 04:40:14;;;;;;;39.38;35.45;;;3.40;94.80;;;;;;5092747;28;20580;-73
2022/01/11 04:42:41;;;;;;;41.78;37.53;;;3.40;94.70;;;;;;5092796;28;20207;-73
2022/01/11 04:45:10;;;;;;;41.33;37.10;;;3.40;94.40;;;;;;5092946;28;20191;-73
2022/01/11 04:47:37;;;;;;;41.13;36.85;;;3.40;94.30;;;;;;5092844;28;20587;-73
2022/01/11 04:50:05;;;;;;;43.45;39.30;;;3.30;94.30;;;;;;5092584;28;20301;-73
2022/01/11 04:52:32;;;;;;;42.70;38.53;;;3.30;94.40;;;;;;5092733;28;20203;-73
2022/01/11 04:55:01;;;;;;;40.25;36.47;;;3.40;94.20;;;;;;5092834;28;20310;-73
2022/01/11 04:57:28;;;;;;;42.72;37.63;;;3.30;94.10;;;;;;5092572;28;20564;-73
2022/01/11 04:59:55;;;;;;;39.95;36.53;;;3.40;93.90;;;;;;5092529;28;20219;-73
2022/01/11 05:02:22;;;;;;;45.63;37.38;;;3.50;93.70;;;;;;5092801;28;20198;-73
2022/01/11 05:04:49;;;;;;;38.63;34.92;;;3.50;93.50;;;;;;5092682;28;20199;-73
2022/01/11 05:07:16;;;;;;;41.33;36.78;;;3.50;93.30;;;;;;5092634;28;20568;-73
2022/01/11 05:09:43;;;;;;;42.10;37.65;;;3.50;93.00;;;;;;5092317;28;20222;-73
2022/01/11 05:12:12;;;;;;;38.83;34.92;;;3.50;93.10;;;;;;5092704;28;20191;-73
2022/01/11 05:14:38;;;;;;;39.28;35.05;;;3.40;93.60;;;;;;5092480;28;20561;-73
2022/01/11 05:17:06;;;;;;;38.92;35.03;;;3.40;93.80;;;;;;5096527;28;20199;-72
2022/01/11 05:19:33;;;;;;;40.45;36.35;;;3.40;94.00;;;;;;5096468;28;20629;-73
2022/01/11 05:22:00;;;;;;;38.92;35.42;;;3.40;93.80;;;;;;5096699;28;20191;-73
2022/01/11 05:24:27;;;;;;;382.33;63.03;;;3.50;93.80;;;;;;5096665;28;20191;-73
2022/01/11 05:26:54;;;;;;;43.47;38.85;;;3.50;94.00;;;;;;5096699;28;20631;-73
2022/01/11 05:29:22;;;;;;;45.22;40.70;;;3.50;94.20;;;;;;5096256;28;20218;-73
2022/01/11 05:31:49;;;;;;;1976.78;334.90;;;3.60;94.80;;;;;;5096538;28;20195;-73
2022/01/11 05:34:16;;;;;;;45.22;40.38;;;3.70;95.90;;;;;;5096373;28;20219;-73
2022/01/11 05:36:43;;;;;;;44.88;40.25;;;3.70;95.50;;;;;;5096512;28;20195;-73
2022/01/11 05:39:10;;;;;;;42.92;38.63;;;3.80;95.30;;;;;;5096073;28;20221;-73
2022/01/11 05:41:37;;;;;;;43.65;39.28;;;3.70;94.50;;;;;;5096247;28;20203;-73
2022/01/11 05:44:04;;;;;;;49.03;39.85;;;3.70;94.40;;;;;;5096152;28;20205;-73
2022/01/11 05:46:32;;;;;;;42.08;37.83;;;3.70;94.10;;;;;;5096205;28;20213;-73
2022/01/11 05:48:59;;;;;;;42.65;38.65;;;3.70;93.80;;;;;;5096045;28;20198;-73
2022/01/11 05:51:26;;;;;;;41.53;37.53;;;3.70;93.80;;;;;;5096120;28;20196;-73
2022/01/11 05:53:53;;;;;;;41.20;37.28;;;3.70;94.90;;;;;;5095916;28;20199;-73
2022/01/11 05:56:20;;;;;;;41.90;37.55;;;3.60;94.20;;;;;;5095875;28;20237;-73
2022/01/11 05:58:47;;;;;;;44.45;40.00;;;3.70;94.00;;;;;;5095607;28;20192;-73
2022/01/11 06:01:14;;;;;;;735.72;112.07;;;3.70;94.70;;;;;;5095825;28;20206;-73
2022/01/11 06:03:42;;;;;;;49.63;40.97;;;3.70;96.00;;;;;;5095859;28;20195;-73
2022/01/11 06:06:09;;;;;;;48.75;39.22;;;3.70;95.50;;;;;;5095791;28;20552;-73
2022/01/11 06:08:36;;;;;;;56.72;42.92;;;3.70;95.00;;;;;;5095849;28;20200;-73
2022/01/11 06:11:03;;;;;;;46.80;41.97;;;3.70;96.10;;;;;;5095504;28;20647;-73
2022/01/11 06:13:30;;;;;;;44.42;39.80;;;3.70;98.00;;;;;;5095698;28;20198;-73
2022/01/11 06:15:57;;;;;;;44.88;40.67;;;3.90;96.30;;;;;;5095503;28;20313;-73
2022/01/11 06:18:24;;;;;;;44.70;38.08;;;3.80;94.60;;;;;;5095516;28;20205;-73
2022/01/11 06:20:52;;;;;;;44.22;39.92;;;3.80;94.60;;;;;;5095393;28;20696;-73
2022/01/11 06:23:19;;;;;;;46.17;40.28;;;3.80;94.80;;;;;;5095571;28;20278;-73
2022/01/11 06:25:45;;;;;;;88.43;42.97;;;3.70;94.80;;;;;;5095366;28;20188;-73
2022/01/11 06:28:12;;;;;;;44.72;40.53;;;3.70;94.90;;;;;;5094546;28;20203;-73
2022/01/11 06:30:39;;;;;;;60.20;42.63;;;3.70;95.20;;;;;;5095084;28;20223;-73
2022/01/11 06:33:06;;;;;;;215.45;54.10;;;3.70;94.70;;;;;;5095371;28;20652;-73
2022/01/11 06:35:33;;;;;;;45.92;41.70;;;3.70;95.10;;;;;;5095095;28;20215;-73
2022/01/11 06:38:01;;;;;;;45.38;40.70;;;3.70;95.30;;;;;;5095203;28;20195;-73
2022/01/11 06:40:28;;;;;;;45.42;40.85;;;3.70;94.90;;;;;;5095004;28;20306;-73
2022/01/11 06:42:55;;;;;;;46.45;42.15;;;3.70;94.50;;;;;;5094946;28;20213;-73
2022/01/11 06:45:22;;;;;;;45.35;40.85;;;3.70;94.40;;;;;;5095116;28;20206;-73
2022/01/11 06:47:50;;;;;;;62.15;42.33;;;3.60;94.30;;;;;;5095058;28;20377;-73
2022/01/11 06:50:17;;;;;;;42.47;38.22;;;3.60;94.60;;;;;;5094715;28;20226;-73
2022/01/11 06:52:43;;;;;;;44.78;40.00;;;3.60;95.10;;;;;;5094597;28;20695;-73
2022/01/11 06:55:13;;;;;;;49.15;43.88;;;3.70;95.40;;;;;;5094754;28;20241;-73
2022/01/11 06:57:40;;;;;;;433.40;82.68;;;3.70;94.80;;;;;;5094736;28;20679;-73
2022/01/11 07:00:09;;;;;;;102.65;47.55;;;3.70;96.60;;;;;;5094427;28;20248;-73
2022/01/11 07:02:36;;;;;;;198.05;55.53;;;3.80;96.60;;;;;;5094971;28;20221;-73
2022/01/11 07:05:04;;;;;;;47.83;43.15;;;3.80;95.90;;;;;;5094586;28;20191;-73
2022/01/11 07:07:31;;;;;;;49.38;44.28;;;3.70;95.50;;;;;;5094605;28;20221;-73
2022/01/11 07:09:58;;;;;;;50.90;44.90;;;3.70;96.80;;;;;;5094197;28;20580;-73
2022/01/11 07:12:26;;;;;;;45.92;41.33;;;3.80;96.20;;;;;;5094608;28;20199;-73
2022/01/11 07:14:53;;;;;;;765.13;117.63;;;3.80;95.90;;;;;;5094548;28;20219;-73
2022/01/11 07:17:22;;;;;;;57.83;44.70;;;3.80;97.00;;;;;;5094452;28;20198;-73
2022/01/11 07:19:49;;;;;;;86.55;48.22;;;3.90;97.20;;;;;;5094038;28;20688;-73
2022/01/11 07:22:16;;;;;;;1687.90;249.48;;;3.90;96.40;;;;;;5094494;28;20199;-73
2022/01/11 07:24:43;;;;;;;48.75;44.10;;;3.90;96.80;;;;;;5094375;28;20534;-73
2022/01/11 07:27:10;;;;;;;47.55;42.70;;;3.90;96.40;;;;;;5094410;28;20218;-73
2022/01/11 07:29:38;;;;;;;47.78;43.28;;;3.90;95.30;;;;;;5093922;28;20219;-73
2022/01/11 07:32:06;;;;;;;45.58;41.08;;;3.90;94.80;;;;;;5094128;28;20195;-73
2022/01/11 07:34:33;;;;;;;45.67;40.75;;;3.80;94.50;;;;;;5094085;28;20282;-73
2022/01/11 07:37:00;;;;;;;46.55;42.05;;;3.90;94.10;;;;;;5094049;28;20571;-73
2022/01/11 07:39:26;;;;;;;56.45;41.30;;;3.90;93.80;;;;;;5093706;28;20696;-73
2022/01/11 07:41:53;;;;;;;76.55;45.42;;;3.90;94.50;;;;;;5094084;28;20199;-73
2022/01/11 07:44:20;;;;;;;48.30;41.42;;;3.90;94.60;;;;;;5093832;28;20686;-73
2022/01/11 07:46:48;;;;;;;47.28;42.78;;;3.90;95.00;;;;;;5093976;28;20188;-73
2022/01/11 07:49:15;;;;;;;43.95;39.70;;;4.00;93.70;;;;;;5093437;28;20223;-73
2022/01/11 07:51:42;;;;;;;46.00;41.60;;;4.00;93.80;;;;;;5093773;28;20199;-73
2022/01/11 07:54:09;;;;;;;44.35;40.13;;;4.00;93.40;;;;;;5093828;28;20199;-71
2022/01/11 07:56:36;;;;;;;45.92;41.60;;;3.90;92.80;;;;;;5093560;28;20692;-72
2022/01/11 07:59:03;;;;;;;46.97;41.97;;;4.00;93.20;;;;;;5093317;28;20211;-72
2022/01/11 08:01:31;;;;;;;46.03;41.95;;;4.10;92.60;;;;;;5093456;28;20687;-72
2022/01/11 08:04:00;;;;;;;45.88;41.20;;;4.20;92.20;;;;;;5093472;28;20196;-72
2022/01/11 08:06:27;;;;;;;45.88;41.38;;;4.10;92.20;;;;;;5093460;28;20195;-72
2022/01/11 08:08:54;;;;;;;194.02;55.30;;;4.10;92.80;;;;;;5093367;28;20191;-72
2022/01/11 08:11:21;;;;;;;45.42;40.50;;;4.10;96.70;;;;;;5093267;28;20200;-72
2022/01/11 08:13:48;;;;;;;44.92;40.30;;;4.10;94.90;;;;;;5093368;28;20218;-72
2022/01/11 08:16:15;;;;;;;42.75;38.35;;;4.10;94.90;;;;;;5093199;28;20223;-72
2022/01/11 08:18:42;;;;;;;45.30;40.90;;;4.10;93.50;;;;;;5093369;28;20545;-72
2022/01/11 08:21:10;;;;;;;45.05;40.83;;;4.10;93.00;;;;;;5093344;28;20625;-72
2022/01/11 08:23:37;;;;;;;43.42;39.03;;;4.20;92.50;;;;;;5093363;28;20195;-72
2022/01/11 08:26:22;;;;;;;43.40;39.45;;;4.30;92.50;;;;;;5092662;28;20672;-72
2022/01/11 08:28:48;;;;;;;43.47;39.22;;;4.30;92.10;;;;;;5093107;28;20281;-72
2022/01/11 08:31:15;;;;;;;265.73;64.95;;;4.20;93.00;;;;;;5092742;28;20191;-72
2022/01/11 08:33:42;;;;;;;46.45;40.30;;;4.20;93.90;;;;;;5093060;28;20199;-72
2022/01/11 08:36:10;;;;;;;349.58;71.78;;;4.20;93.10;;;;;;5092940;28;20222;-72
2022/01/11 08:38:37;;;;;;;81.65;43.97;;;4.30;93.30;;;;;;5093057;28;20199;-72
2022/01/11 08:41:04;;;;;;;48.05;39.47;;;4.30;93.20;;;;;;5092681;28;20218;-72
2022/01/11 08:43:31;;;;;;;43.63;39.55;;;4.40;94.40;;;;;;5092822;28;20281;-72
2022/01/11 08:45:58;;;;;;;43.90;39.70;;;4.40;92.50;;;;;;5092876;28;20199;-72
2022/01/11 08:48:25;;;;;;;44.13;40.00;;;4.50;93.40;;;;;;5092863;28;20195;-72
2022/01/11 08:50:53;;;;;;;44.13;40.13;;;4.60;92.50;;;;;;5092169;28;20215;-72
2022/01/11 08:53:21;;;;;;;43.03;38.90;;;4.60;91.60;;;;;;5092740;28;20257;-72
2022/01/11 08:55:49;;;;;;;43.70;39.70;;;4.70;91.00;;;;;;5092647;28;20219;-72
2022/01/11 08:58:16;;;;;;;43.47;39.53;;;4.70;90.50;;;;;;5092499;28;20199;-72
2022/01/11 09:00:43;;;;;;;44.20;39.78;;;4.80;89.80;;;;;;5092668;28;20223;-72
2022/01/11 09:03:10;;;;;;;44.33;40.47;;;4.80;90.50;;;;;;5092623;28;20211;-72
2022/01/11 09:05:37;;;;;;;44.20;39.70;;;4.90;89.30;;;;;;5092750;28;20210;-72
2022/01/11 09:08:04;;;;;;;44.38;39.42;;;5.00;89.90;;;;;;5092652;28;20691;-72
2022/01/11 09:10:32;;;;;;;41.70;37.85;;;5.00;90.50;;;;;;5092274;28;20215;-72
2022/01/11 09:12:59;;;;;;;42.17;38.38;;;4.80;90.40;;;;;;5092688;28;20199;-72
2022/01/11 09:15:27;;;;;;;40.58;36.88;;;4.90;89.60;;;;;;5092485;28;20215;-72
2022/01/11 09:17:55;;;;;;;41.03;37.28;;;4.80;88.60;;;;;;5092637;28;20195;-72
2022/01/11 09:20:22;;;;;;;40.70;36.75;;;4.90;88.50;;;;;;5092217;28;20215;-72
2022/01/11 09:22:48;;;;;;;96.38;42.35;;;5.00;89.00;;;;;;5092420;28;20567;-72
2022/01/11 09:25:16;;;;;;;42.00;38.20;;;5.10;88.10;;;;;;5092598;28;20202;-72
2022/01/11 09:27:44;;;;;;;40.85;37.08;;;5.20;88.70;;;;;;5092516;28;20191;-72
2022/01/11 09:30:13;;;;;;;41.63;37.53;;;5.30;87.40;;;;;;5092192;28;20307;-72
2022/01/11 09:32:41;;;;;;;44.33;40.20;;;5.40;87.30;;;;;;5092486;28;20199;-72
2022/01/11 09:35:11;;;;;;;42.80;39.00;;;5.30;86.80;;;;;;5092391;28;20560;-72
2022/01/11 09:37:38;;;;;;;42.38;38.42;;;5.40;86.30;;;;;;5092332;28;20288;-72
2022/01/11 09:40:07;;;;;;;44.83;40.75;;;5.30;85.20;;;;;;5092107;28;20306;-72
2022/01/11 09:42:34;;;;;;;42.58;38.95;;;5.30;85.40;;;;;;5092370;28;20204;-72
2022/01/11 09:45:04;;;;;;;43.15;39.35;;;5.20;85.40;;;;;;5092306;28;20199;-72
2022/01/11 09:47:31;;;;;;;43.72;39.65;;;5.40;85.20;;;;;;5092284;28;20196;-72
2022/01/11 09:49:58;;;;;;;41.35;37.55;;;5.20;86.50;;;;;;5092017;28;20715;-72
2022/01/11 09:52:27;;;;;;;41.78;37.78;;;5.30;87.00;;;;;;5092101;28;20202;-72
2022/01/11 09:54:55;;;;;;;43.25;39.25;;;5.40;86.30;;;;;;5092175;28;20195;-72
2022/01/11 09:57:22;;;;;;;42.17;38.25;;;5.40;85.80;;;;;;5091909;28;20226;-72
2022/01/11 09:59:50;;;;;;;44.67;40.90;;;5.40;84.80;;;;;;5091961;28;20219;-72
2022/01/11 10:02:18;;;;;;;40.65;36.83;;;5.50;84.50;;;;;;5093011;28;20241;-72
2022/01/11 10:04:45;;;;;;;41.35;37.60;;;5.50;84.90;;;;;;5095809;28;20201;-72
2022/01/11 10:07:13;;;;;;;41.60;38.10;;;5.50;84.00;;;;;;5095780;28;20187;-72
2022/01/11 10:09:47;;;;;;;42.63;38.65;;;5.50;84.80;;;;;;5095571;28;20254;-72
2022/01/11 10:12:14;;;;;;;39.78;36.15;;;5.40;84.50;;;;;;5095796;28;20195;-72
2022/01/11 10:14:48;;;;;;;41.97;37.90;;;5.50;85.20;;;;;;5095803;28;20679;-72
2022/01/11 10:17:19;;;;;;;40.15;36.65;;;5.40;84.70;;;;;;5095627;28;20219;-72
2022/01/11 10:19:48;;;;;;;43.22;39.08;;;5.50;84.90;;;;;;5095316;28;20314;-72
2022/01/11 10:22:16;;;;;;;40.60;37.08;;;5.50;84.00;;;;;;5095653;28;20195;-72
2022/01/11 10:24:45;;;;;;;44.13;39.80;;;5.40;84.30;;;;;;5095646;28;20206;-72
2022/01/11 10:27:15;;;;;;;40.92;37.22;;;5.40;84.60;;;;;;5095512;28;20615;-72
2022/01/11 10:29:44;;;;;;;40.97;37.65;;;5.40;86.30;;;;;;5095056;28;20317;-72
2022/01/11 10:32:21;;;;;;;41.60;37.50;;;5.40;86.50;;;;;;5095397;28;20231;-72
2022/01/11 10:34:50;;;;;;;42.42;38.53;;;5.60;86.10;;;;;;5095246;28;20201;-72
2022/01/11 10:37:24;;;;;;;41.08;37.38;;;5.70;87.20;;;;;;5095124;28;20245;-72
2022/01/11 10:39:50;;;;;;;40.47;36.85;;;5.80;85.30;;;;;;5094962;28;20218;-72
2022/01/11 10:42:28;;;;;;;38.60;35.20;;;6.00;83.30;;;;;;5095038;28;20215;-72
2022/01/11 10:44:58;;;;;;;42.58;38.83;;;6.20;82.10;;;;;;5095214;28;20199;-72
2022/01/11 10:47:29;;;;;;;42.33;38.53;;;6.10;81.80;;;;;;5094971;28;20201;-72
2022/01/11 10:49:59;;;;;;;43.67;39.90;;;6.20;82.60;;;;;;5094784;28;20215;-72
2022/01/11 10:52:28;;;;;;;42.00;38.30;;;6.20;83.10;;;;;;5094923;28;20199;-72
2022/01/11 10:54:55;;;;;;;41.47;37.83;;;6.30;81.90;;;;;;5094924;28;20234;-72
2022/01/11 10:57:26;;;;;;;40.33;36.65;;;6.30;82.70;;;;;;5094532;28;20211;-72
2022/01/11 11:00:11;;;;;;;39.15;35.53;;;6.40;82.30;;;;;;5094699;28;20222;-72
2022/01/11 11:02:41;;;;;;;42.25;38.53;;;6.60;80.60;;;;;;5094850;28;20218;-72
2022/01/11 11:05:16;;;;;;;40.45;36.67;;;6.60;79.90;;;;;;5094604;28;20195;-72
2022/01/11 11:07:44;;;;;;;38.97;35.67;;;6.80;78.30;;;;;;5094603;28;20202;-72
2022/01/11 11:10:12;;;;;;;39.80;36.22;;;6.70;77.80;;;;;;5094388;28;20587;-72
2022/01/11 11:12:40;;;;;;;36.75;33.97;;;6.50;78.20;;;;;;5094418;28;20205;-72
2022/01/11 11:15:07;;;;;;;38.33;35.03;;;6.70;79.00;;;;;;5094421;28;20564;-72
2022/01/11 11:17:36;;;;;;;37.72;34.63;;;6.70;79.90;;;;;;5094335;28;20301;-72
2022/01/11 11:20:08;;;;;;;39.60;36.63;;;6.80;78.10;;;;;;5094041;28;20298;-72
2022/01/11 11:22:35;;;;;;;40.03;36.67;;;6.70;77.60;;;;;;5094528;28;20206;-72
2022/01/11 11:25:03;;;;;;;40.50;37.33;;;6.80;78.90;;;;;;5094278;28;20209;-72
2022/01/11 11:27:31;;;;;;;41.88;38.38;;;6.70;77.90;;;;;;5094119;28;20198;-72
2022/01/11 11:29:58;;;;;;;38.83;35.42;;;6.80;76.90;;;;;;5093959;28;20310;-72
2022/01/11 11:32:25;;;;;;;38.08;34.90;;;6.70;77.50;;;;;;5094064;28;20195;-72
2022/01/11 11:34:52;;;;;;;39.33;36.25;;;6.90;76.20;;;;;;5094178;28;20209;-72
2022/01/11 11:37:26;;;;;;;38.92;35.83;;;6.70;76.20;;;;;;5094174;28;20219;-72
2022/01/11 11:40:00;;;;;;;38.05;34.35;;;6.70;76.20;;;;;;5093873;28;20301;-72
2022/01/11 11:42:28;;;;;;;36.28;33.30;;;6.80;76.20;;;;;;5094003;28;20660;-72
2022/01/11 11:44:58;;;;;;;38.40;35.50;;;6.80;75.70;;;;;;5094012;28;20195;-72
2022/01/11 11:47:31;;;;;;;37.50;34.40;;;6.90;74.50;;;;;;5049520;22;20316;-72
2022/01/11 11:50:00;;;;;;;35.20;32.38;;;6.90;74.60;;;;;;5033444;28;20213;-72
2022/01/11 11:52:31;;;;;;;35.13;32.22;;;6.80;74.50;;;;;;5033592;28;20197;-72
2022/01/11 11:55:00;;;;;;;34.55;31.90;;;6.80;74.00;;;;;;5033599;28;20566;-72
2022/01/11 11:57:28;;;;;;;36.70;33.70;;;6.70;75.00;;;;;;5033402;28;20217;-72
2022/01/11 11:59:57;;;;;;;36.72;33.92;;;6.60;75.20;;;;;;5033206;28;20252;-72
2022/01/11 12:02:38;;;;;;;39.17;36.22;;;6.60;75.50;;;;;;5033528;28;20207;-72
2022/01/11 12:05:07;;;;;;;36.03;32.72;;;6.70;75.60;;;;;;5033350;28;20280;-72
2022/01/11 12:07:40;;;;;;;39.00;35.35;;;6.80;73.80;;;;;;5033360;28;20586;-72
2022/01/11 12:10:12;;;;;;;30.25;28.05;;;6.80;70.30;;;;;;5033101;28;20728;-72
2022/01/11 12:12:49;;;;;;;33.92;31.52;;;6.80;70.20;;;;;;5033333;28;20201;-72
2022/01/11 12:15:38;;;;;;;31.27;29.13;;;6.50;71.80;;;;;;5033323;28;20288;-72
2022/01/11 12:18:17;;;;;;;28.13;26.20;;;6.50;72.70;;;;;;5028148;28;20225;-72
2022/01/11 12:20:48;;;;;;;30.38;28.58;;;6.50;70.10;;;;;;5032881;28;20225;-73
2022/01/11 12:23:21;;;;;;;29.48;27.50;;;6.50;69.70;;;;;;5033015;28;20197;-72
2022/01/11 12:25:53;;;;;;;28.40;26.50;;;6.60;69.00;;;;;;5032474;28;20590;-72
2022/01/11 12:28:21;;;;;;;28.60;26.70;;;6.60;67.70;;;;;;5033026;28;20761;-72
2022/01/11 12:30:48;;;;;;;28.63;26.92;;;6.60;67.50;;;;;;5032795;28;20213;-72
2022/01/11 12:33:17;;;;;;;29.17;27.23;;;6.30;66.50;;;;;;5033097;28;20204;-73
2022/01/11 12:35:53;;;;;;;28.20;26.50;;;6.40;67.10;;;;;;5033108;28;20201;-72
2022/01/11 12:38:22;;;;;;;26.52;24.63;;;6.60;67.50;;;;;;5032774;28;20736;-73
2022/01/11 12:40:50;;;;;;;26.00;24.40;;;6.80;67.60;;;;;;5032779;28;20312;-73
2022/01/11 12:43:36;;;;;;;26.08;24.40;;;6.90;65.20;;;;;;5032855;28;20198;-73